Time;durP1;ratioP1;P1;durP2;ratioP2;P2;SDS_P1;SDS_P2;PMS_P1;PMS_P2;Temp;Humidity;BMP_temperature;BMP_pressure;BME280_temperature;BME280_humidity;BME280_pressure;Samples;Min_cycle;Max_cycle;Signal;HPM_P1;HPM_P2
2022/05/11 00:00:42;;;;;;;0.80;0.80;;;20.70;47.30;;;;;;5044412;28;20123;-80
2022/05/11 00:03:08;;;;;;;0.70;0.70;;;20.70;47.30;;;;;;5037386;28;20261;-81
2022/05/11 00:05:34;;;;;;;1.52;0.75;;;20.70;47.30;;;;;;5035916;28;20045;-80
2022/05/11 00:08:00;;;;;;;1.38;0.80;;;20.70;47.60;;;;;;5032518;28;20102;-80
2022/05/11 00:10:26;;;;;;;1.50;0.73;;;20.70;48.30;;;;;;5050877;28;20025;-81
2022/05/11 00:12:51;;;;;;;1.48;0.80;;;20.60;47.60;;;;;;5043930;28;20338;-81
2022/05/11 00:15:22;;;;;;;0.80;0.80;;;20.60;47.60;;;;;;5056450;28;20135;-80
2022/05/11 00:17:47;;;;;;;0.80;0.70;;;20.60;48.00;;;;;;5048358;28;20621;-81
2022/05/11 00:20:15;;;;;;;0.70;0.65;;;20.60;47.80;;;;;;5047831;28;20163;-81
2022/05/11 00:22:40;;;;;;;2.67;0.83;;;20.60;48.00;;;;;;5051189;28;20507;-81
2022/05/11 00:25:08;;;;;;;1.38;0.80;;;20.50;48.00;;;;;;5017567;28;20044;-80
2022/05/11 00:27:34;;;;;;;0.90;0.80;;;20.60;48.10;;;;;;5040342;28;20440;-81
2022/05/11 00:29:59;;;;;;;1.17;0.80;;;20.50;48.00;;;;;;5031466;28;20145;-80
2022/05/11 00:32:26;;;;;;;1.13;0.80;;;20.50;48.10;;;;;;5034015;28;20070;-80
2022/05/11 00:34:52;;;;;;;1.65;0.88;;;20.50;48.30;;;;;;5068563;28;20400;-80
2022/05/11 00:37:18;;;;;;;1.50;0.80;;;20.50;48.40;;;;;;5058316;28;20028;-81
2022/05/11 00:39:44;;;;;;;1.17;0.80;;;20.50;48.40;;;;;;5019927;28;20466;-80
2022/05/11 00:42:10;;;;;;;2.80;1.00;;;20.40;48.50;;;;;;5045079;28;20036;-81
2022/05/11 00:44:36;;;;;;;1.20;0.90;;;20.40;48.60;;;;;;5023901;28;20044;-81
2022/05/11 00:47:11;;;;;;;1.27;0.80;;;20.40;48.80;;;;;;5036033;28;20165;-82
2022/05/11 00:49:43;;;;;;;1.40;0.73;;;20.40;49.40;;;;;;5043734;28;20054;-81
2022/05/11 00:52:22;;;;;;;0.80;0.70;;;20.40;49.50;;;;;;5062955;28;20175;-80
2022/05/11 00:55:06;;;;;;;1.63;0.80;;;20.40;49.70;;;;;;5031908;28;20040;-81
2022/05/11 00:57:46;;;;;;;1.25;0.80;;;20.40;49.90;;;;;;5038124;28;20485;-80
2022/05/11 01:00:12;;;;;;;1.13;0.80;;;20.30;49.20;;;;;;5037538;28;20350;-80
2022/05/11 01:02:42;;;;;;;1.08;0.80;;;20.30;49.10;;;;;;5041412;28;20060;-80
2022/05/11 01:05:08;;;;;;;0.90;0.80;;;20.30;49.40;;;;;;5030056;28;20125;-80
2022/05/11 01:07:34;;;;;;;1.00;0.80;;;20.20;49.30;;;;;;5041264;28;20040;-80
2022/05/11 01:10:00;;;;;;;1.35;0.80;;;20.20;49.30;;;;;;5024377;28;20044;-80
2022/05/11 01:12:32;;;;;;;1.03;0.80;;;20.20;49.40;;;;;;5058248;28;20020;-80
2022/05/11 01:15:00;;;;;;;1.60;1.00;;;20.20;49.80;;;;;;5049558;28;20145;-81
2022/05/11 01:17:28;;;;;;;1.92;0.70;;;20.20;49.60;;;;;;5057481;28;20378;-81
2022/05/11 01:19:54;;;;;;;2.22;0.70;;;20.20;49.90;;;;;;5024958;28;20445;-81
2022/05/11 01:22:40;;;;;;;0.83;0.83;;;20.10;49.80;;;;;;5053718;28;20058;-81
2022/05/11 01:25:09;;;;;;;1.05;0.82;;;20.10;50.80;;;;;;5034761;28;21195;-81
2022/05/11 01:27:41;;;;;;;1.35;0.80;;;20.10;49.90;;;;;;5029786;28;20434;-80
2022/05/11 01:30:19;;;;;;;1.17;0.80;;;20.10;50.30;;;;;;5041117;28;20551;-81
2022/05/11 01:32:49;;;;;;;1.23;0.80;;;20.10;50.60;;;;;;5057645;28;20340;-81
2022/05/11 01:35:22;;;;;;;1.00;0.70;;;20.10;50.30;;;;;;5043226;28;20578;-80
2022/05/11 01:38:09;;;;;;;1.58;0.80;;;20.00;50.70;;;;;;5056101;28;20540;-81
2022/05/11 01:40:35;;;;;;;1.05;0.77;;;20.00;51.10;;;;;;5032159;28;20052;-81
2022/05/11 01:43:00;;;;;;;0.93;0.80;;;20.00;50.30;;;;;;5016051;28;20037;-81
2022/05/11 01:45:26;;;;;;;1.23;0.80;;;20.00;50.20;;;;;;5057510;28;20348;-80
2022/05/11 01:47:56;;;;;;;1.53;0.70;;;19.90;50.20;;;;;;5041457;28;20257;-81
2022/05/11 01:50:23;;;;;;;1.60;0.73;;;19.90;50.80;;;;;;5043749;28;20402;-80
2022/05/11 01:52:49;;;;;;;2.25;0.60;;;20.00;50.60;;;;;;5056629;28;20031;-81
2022/05/11 01:55:15;;;;;;;1.20;0.70;;;19.90;50.50;;;;;;5050237;28;20218;-81
2022/05/11 01:57:41;;;;;;;1.77;0.60;;;19.90;50.60;;;;;;5009038;28;20107;-81
2022/05/11 02:00:08;;;;;;;1.52;0.80;;;19.90;50.80;;;;;;5038474;28;20123;-81
2022/05/11 02:02:33;;;;;;;0.60;0.60;;;19.90;51.00;;;;;;5019314;28;20229;-81
2022/05/11 02:07:49;;;;;;;1.08;0.70;;;19.90;51.00;;;;;;5043303;28;20563;-81
2022/05/11 02:10:16;;;;;;;0.87;0.60;;;19.80;50.90;;;;;;5039029;28;20039;-81
2022/05/11 02:12:42;;;;;;;0.52;0.52;;;19.80;51.20;;;;;;5038640;28;20640;-80
2022/05/11 02:15:09;;;;;;;1.50;0.73;;;19.80;51.30;;;;;;5048976;28;20052;-80
2022/05/11 02:17:35;;;;;;;1.35;0.80;;;19.80;51.40;;;;;;5024089;28;20032;-80
2022/05/11 02:20:01;;;;;;;0.83;0.70;;;19.80;51.40;;;;;;5047590;28;20047;-80
2022/05/11 02:22:28;;;;;;;0.80;0.70;;;19.70;51.40;;;;;;5040424;28;20745;-81
2022/05/11 02:24:54;;;;;;;2.10;0.80;;;19.70;51.40;;;;;;5055846;28;20105;-81
2022/05/11 02:27:20;;;;;;;1.10;0.57;;;19.70;51.50;;;;;;5041652;28;20037;-81
2022/05/11 02:29:45;;;;;;;0.90;0.67;;;19.70;51.60;;;;;;5041650;28;20102;-80
2022/05/11 02:32:11;;;;;;;1.88;0.80;;;19.70;51.60;;;;;;5038959;28;20442;-81
2022/05/11 02:37:21;;;;;;;1.77;0.70;;;19.60;51.80;;;;;;5038965;28;20505;-81
2022/05/11 02:39:48;;;;;;;0.90;0.70;;;19.60;51.80;;;;;;5035408;28;20161;-81
2022/05/11 02:42:14;;;;;;;1.40;0.60;;;19.60;51.90;;;;;;5050541;28;20635;-81
2022/05/11 02:44:40;;;;;;;1.75;0.70;;;19.60;52.10;;;;;;5023468;28;20978;-81
2022/05/11 02:47:06;;;;;;;0.70;0.70;;;19.50;52.10;;;;;;5035644;28;20104;-81
2022/05/11 02:49:31;;;;;;;0.97;0.73;;;19.50;52.20;;;;;;5030370;28;20275;-80
2022/05/11 02:51:58;;;;;;;1.30;0.70;;;19.40;52.30;;;;;;5031723;28;20156;-81
2022/05/11 02:54:24;;;;;;;1.23;0.73;;;19.40;52.20;;;;;;5049233;28;20024;-81
2022/05/11 02:56:50;;;;;;;0.80;0.70;;;19.40;52.40;;;;;;5025330;28;20042;-81
2022/05/11 02:59:15;;;;;;;0.90;0.75;;;19.40;52.50;;;;;;5047371;28;20044;-81
2022/05/11 03:01:41;;;;;;;2.20;0.70;;;19.30;52.60;;;;;;5028031;28;20036;-81
2022/05/11 03:04:07;;;;;;;0.90;0.70;;;19.30;52.70;;;;;;5032143;28;20275;-81
2022/05/11 03:06:33;;;;;;;1.42;0.80;;;19.30;52.70;;;;;;5062615;28;20436;-81
2022/05/11 03:08:58;;;;;;;1.37;0.83;;;19.20;52.80;;;;;;5048568;28;20500;-81
2022/05/11 03:11:24;;;;;;;0.73;0.73;;;19.20;52.90;;;;;;5051479;28;20033;-81
2022/05/11 03:13:50;;;;;;;1.37;0.93;;;19.20;53.00;;;;;;5040261;28;20111;-81
2022/05/11 03:16:16;;;;;;;1.33;0.70;;;19.20;53.10;;;;;;5050225;28;20211;-81
2022/05/11 03:18:42;;;;;;;0.85;0.77;;;19.10;53.10;;;;;;5038149;28;20029;-81
2022/05/11 03:21:07;;;;;;;1.10;0.77;;;19.10;53.20;;;;;;5046318;28;20485;-81
2022/05/11 03:23:33;;;;;;;1.00;0.90;;;19.00;53.20;;;;;;5030515;28;20055;-81
2022/05/11 03:25:59;;;;;;;1.33;0.80;;;19.00;53.40;;;;;;5059194;28;20077;-80
2022/05/11 03:28:25;;;;;;;1.05;0.80;;;19.00;53.50;;;;;;5052250;28;20032;-81
2022/05/11 03:30:51;;;;;;;1.33;0.70;;;19.00;53.60;;;;;;5057711;28;20060;-81
2022/05/11 03:36:01;;;;;;;2.40;0.90;;;18.90;53.70;;;;;;5044899;28;20283;-81
2022/05/11 03:38:26;;;;;;;1.63;0.90;;;18.80;53.60;;;;;;5046192;28;20040;-80
2022/05/11 03:40:52;;;;;;;0.80;0.70;;;18.80;53.70;;;;;;5068052;28;20552;-81
2022/05/11 03:43:19;;;;;;;1.20;0.80;;;18.80;53.70;;;;;;5037740;28;20047;-81
2022/05/11 03:45:45;;;;;;;1.60;0.80;;;18.70;53.70;;;;;;5055802;28;20203;-80
2022/05/11 03:48:11;;;;;;;0.80;0.77;;;18.60;53.70;;;;;;5044220;28;20033;-80
2022/05/11 03:50:38;;;;;;;0.75;0.70;;;18.60;53.80;;;;;;5052193;28;20031;-81
2022/05/11 03:53:03;;;;;;;1.73;0.80;;;18.60;53.90;;;;;;5046917;28;20049;-81
2022/05/11 03:55:29;;;;;;;1.27;0.80;;;18.50;53.90;;;;;;5034879;28;20119;-80
2022/05/11 03:57:55;;;;;;;1.20;0.80;;;18.50;53.90;;;;;;5055917;28;20202;-80
2022/05/11 04:00:23;;;;;;;1.47;0.80;;;18.50;54.00;;;;;;5061545;28;20047;-80
2022/05/11 04:02:50;;;;;;;0.80;0.70;;;18.50;54.10;;;;;;5035130;28;20067;-80
2022/05/11 04:05:17;;;;;;;1.30;0.90;;;18.40;54.00;;;;;;5061258;28;20532;-80
2022/05/11 04:07:42;;;;;;;2.00;0.80;;;18.40;54.10;;;;;;5044885;28;20028;-80
2022/05/11 04:10:10;;;;;;;0.90;0.80;;;18.40;54.00;;;;;;5033478;28;20556;-80
2022/05/11 04:12:36;;;;;;;2.85;0.90;;;18.40;54.20;;;;;;5060207;28;20384;-80
2022/05/11 04:15:03;;;;;;;1.10;0.60;;;18.40;54.10;;;;;;5036671;28;20044;-80
2022/05/11 04:17:28;;;;;;;1.05;0.73;;;18.40;54.10;;;;;;5047351;28;20370;-80
2022/05/11 04:19:55;;;;;;;1.43;0.73;;;18.30;54.00;;;;;;5031969;28;20113;-80
2022/05/11 04:22:20;;;;;;;1.45;0.80;;;18.30;54.10;;;;;;5039203;28;20086;-80
2022/05/11 04:24:46;;;;;;;1.60;0.77;;;18.30;54.10;;;;;;5043092;28;20070;-79
2022/05/11 04:27:13;;;;;;;0.77;0.70;;;18.20;54.80;;;;;;5056064;28;20033;-80
2022/05/11 04:29:39;;;;;;;1.85;0.77;;;18.20;54.20;;;;;;5057932;28;20759;-81
2022/05/11 04:32:06;;;;;;;1.17;0.82;;;18.20;54.30;;;;;;5007557;28;20805;-80
2022/05/11 04:34:31;;;;;;;1.80;0.90;;;18.10;54.40;;;;;;5057392;28;20029;-81
2022/05/11 04:36:57;;;;;;;1.30;0.90;;;18.10;54.40;;;;;;5034115;28;20047;-80
2022/05/11 04:39:22;;;;;;;1.63;0.80;;;18.10;54.50;;;;;;5049429;28;20079;-81
2022/05/11 04:41:48;;;;;;;1.23;0.85;;;18.00;54.50;;;;;;5040988;28;20055;-80
2022/05/11 04:44:13;;;;;;;2.40;1.00;;;18.00;54.60;;;;;;5053951;28;20035;-80
2022/05/11 04:46:39;;;;;;;1.42;0.88;;;18.00;54.90;;;;;;5049019;28;20055;-80
2022/05/11 04:49:23;;;;;;;1.73;0.70;;;18.00;54.90;;;;;;5037879;28;20127;-80
2022/05/11 04:51:52;;;;;;;1.40;0.80;;;18.00;55.00;;;;;;5031698;28;20119;-82
2022/05/11 04:54:18;;;;;;;1.95;0.90;;;17.90;55.10;;;;;;5014874;28;20031;-80
2022/05/11 04:56:44;;;;;;;2.42;0.98;;;17.90;55.20;;;;;;5020786;28;20036;-80
2022/05/11 04:59:12;;;;;;;1.50;1.00;;;17.90;55.30;;;;;;5059782;28;20028;-80
2022/05/11 05:01:37;;;;;;;3.13;0.90;;;17.90;55.50;;;;;;5032134;28;23038;-81
2022/05/11 05:04:03;;;;;;;2.65;0.80;;;17.90;55.60;;;;;;5035731;28;20023;-81
2022/05/11 05:06:32;;;;;;;2.63;0.80;;;17.90;55.70;;;;;;5038589;28;20144;-79
2022/05/11 05:08:59;;;;;;;1.25;0.70;;;17.90;55.80;;;;;;5021880;28;20036;-80
2022/05/11 05:11:25;;;;;;;2.35;0.98;;;17.90;55.90;;;;;;5045584;28;20024;-80
2022/05/11 05:13:51;;;;;;;2.43;1.20;;;17.80;55.90;;;;;;5025983;28;20086;-79
2022/05/11 05:16:16;;;;;;;1.42;0.90;;;17.80;56.00;;;;;;5003189;28;1108058;-79
2022/05/11 05:18:42;;;;;;;2.25;0.95;;;17.90;56.20;;;;;;5054925;28;20110;-79
2022/05/11 05:21:07;;;;;;;2.30;0.80;;;17.80;56.50;;;;;;5029012;28;20033;-79
2022/05/11 05:23:35;;;;;;;1.40;0.80;;;17.80;56.50;;;;;;5027411;28;20021;-80
2022/05/11 05:26:02;;;;;;;3.47;0.90;;;17.80;56.80;;;;;;5050346;28;20295;-82
2022/05/11 05:31:50;;;;;;;1.20;0.75;;;17.80;57.80;;;;;;5042892;28;20111;-80
2022/05/11 05:34:16;;;;;;;1.40;0.80;;;17.80;56.50;;;;;;5039411;28;20111;-79
2022/05/11 05:36:41;;;;;;;2.43;0.90;;;17.80;56.50;;;;;;5018182;28;21568;-81
2022/05/11 05:39:07;;;;;;;0.82;0.70;;;17.80;56.50;;;;;;5041046;28;20189;-80
2022/05/11 05:41:33;;;;;;;1.53;0.80;;;17.80;56.60;;;;;;5048785;28;20028;-80
2022/05/11 05:43:59;;;;;;;3.35;1.00;;;17.90;56.60;;;;;;5044512;28;20286;-81
2022/05/11 05:46:25;;;;;;;1.13;0.70;;;17.90;56.70;;;;;;5041495;28;20541;-80
2022/05/11 05:48:51;;;;;;;2.03;0.70;;;17.90;56.50;;;;;;5064020;28;20135;-80
2022/05/11 05:51:18;;;;;;;2.20;0.90;;;17.90;56.50;;;;;;5010611;28;20597;-81
2022/05/11 05:53:45;;;;;;;0.88;0.65;;;18.00;56.40;;;;;;5048978;28;20136;-82
2022/05/11 05:56:11;;;;;;;1.00;0.80;;;18.00;56.30;;;;;;5035282;28;20106;-81
2022/05/11 05:58:38;;;;;;;1.40;0.77;;;18.00;56.20;;;;;;5019795;28;20063;-80
2022/05/11 06:01:05;;;;;;;1.20;0.70;;;18.00;56.30;;;;;;5062986;28;20032;-80
2022/05/11 06:03:32;;;;;;;0.93;0.70;;;18.10;56.30;;;;;;5028499;28;20060;-80
2022/05/11 06:05:58;;;;;;;1.85;0.68;;;18.10;56.30;;;;;;5058402;28;20093;-80
2022/05/11 06:08:24;;;;;;;1.77;0.70;;;18.10;56.20;;;;;;5022396;28;20040;-80
2022/05/11 06:10:52;;;;;;;2.00;0.80;;;18.20;56.10;;;;;;5036801;28;20313;-80
2022/05/11 06:13:23;;;;;;;2.30;0.90;;;18.20;56.00;;;;;;5033506;28;20292;-81
2022/05/11 06:15:54;;;;;;;1.77;0.80;;;18.20;55.80;;;;;;5025236;28;20045;-81
2022/05/11 06:18:21;;;;;;;1.30;0.77;;;18.30;55.70;;;;;;5027843;28;21249;-79
2022/05/11 06:20:51;;;;;;;2.45;0.80;;;18.30;55.60;;;;;;5066199;28;20720;-81
2022/05/11 06:23:21;;;;;;;1.50;0.60;;;18.30;55.50;;;;;;5030177;28;20304;-80
2022/05/11 06:25:50;;;;;;;2.95;0.70;;;18.40;56.30;;;;;;5039594;28;20500;-80
2022/05/11 06:28:18;;;;;;;1.25;0.75;;;18.50;55.70;;;;;;5027598;28;20033;-81
2022/05/11 06:30:46;;;;;;;2.47;0.60;;;18.50;55.50;;;;;;5032342;28;20024;-81
2022/05/11 06:33:12;;;;;;;1.58;0.70;;;18.60;55.10;;;;;;5061494;28;20318;-80
2022/05/11 06:35:38;;;;;;;2.10;0.70;;;18.60;54.90;;;;;;5048032;28;20044;-79
2022/05/11 06:38:06;;;;;;;1.93;0.80;;;18.60;54.70;;;;;;5033764;28;20659;-80
2022/05/11 06:40:33;;;;;;;1.20;0.60;;;18.70;54.50;;;;;;5043551;28;20650;-81
2022/05/11 06:43:01;;;;;;;2.63;0.75;;;18.70;54.10;;;;;;5052595;28;20496;-80
2022/05/11 06:45:30;;;;;;;0.70;0.70;;;18.80;54.20;;;;;;5029111;28;20040;-82
2022/05/11 06:47:56;;;;;;;1.13;0.63;;;18.80;54.10;;;;;;5044004;28;20663;-80
2022/05/11 06:50:24;;;;;;;1.47;0.60;;;18.90;54.10;;;;;;5044494;28;20114;-81
2022/05/11 06:52:50;;;;;;;0.90;0.52;;;18.90;54.10;;;;;;5037946;28;20032;-81
2022/05/11 07:00:45;;;;;;;1.58;0.52;;;19.10;54.20;;;;;;5055173;28;20032;-80
2022/05/11 07:03:11;;;;;;;2.50;0.50;;;19.20;53.80;;;;;;5037123;28;20044;-80
2022/05/11 07:05:37;;;;;;;0.90;0.43;;;19.20;53.70;;;;;;5042893;28;20036;-80
2022/05/11 07:08:03;;;;;;;1.17;0.50;;;19.30;53.60;;;;;;5030764;28;20185;-80
2022/05/11 07:10:30;;;;;;;1.27;0.60;;;19.40;53.30;;;;;;5029681;28;20029;-80
2022/05/11 07:12:56;;;;;;;2.10;0.70;;;19.40;52.90;;;;;;5028609;28;20052;-81
2022/05/11 07:15:22;;;;;;;2.30;0.60;;;19.50;52.90;;;;;;5049621;28;20508;-80
2022/05/11 07:17:52;;;;;;;2.28;0.90;;;19.50;53.00;;;;;;5019926;28;20037;-80
2022/05/11 07:20:44;;;;;;;2.77;0.70;;;19.60;53.00;;;;;;5050057;28;20891;-81
2022/05/11 07:23:12;;;;;;;3.10;0.70;;;19.70;52.60;;;;;;5044004;28;20638;-80
2022/05/11 07:25:37;;;;;;;1.95;0.75;;;19.70;52.40;;;;;;5055966;28;23553;-80
2022/05/11 07:28:04;;;;;;;1.75;0.77;;;19.80;52.40;;;;;;5012113;28;20020;-82
2022/05/11 07:30:35;;;;;;;1.90;1.00;;;19.90;52.50;;;;;;5050879;28;20321;-80
2022/05/11 07:33:02;;;;;;;1.85;0.82;;;20.00;52.60;;;;;;5043694;28;20039;-81
2022/05/11 07:35:28;;;;;;;2.55;0.60;;;20.00;52.50;;;;;;5039360;28;20296;-81
2022/05/11 07:37:54;;;;;;;1.35;0.60;;;20.20;52.70;;;;;;5056984;28;20113;-81
2022/05/11 07:40:22;;;;;;;2.55;0.90;;;20.30;52.90;;;;;;5025855;28;20258;-81
2022/05/11 07:42:47;;;;;;;1.70;0.70;;;20.40;52.80;;;;;;5021282;28;20033;-79
2022/05/11 07:45:15;;;;;;;1.75;0.70;;;20.60;52.70;;;;;;5043388;28;20139;-80
2022/05/11 07:47:41;;;;;;;1.63;0.70;;;20.70;53.40;;;;;;5049209;28;20512;-81
2022/05/11 07:50:08;;;;;;;2.00;0.60;;;21.00;52.80;;;;;;5024292;28;20024;-81
2022/05/11 07:52:33;;;;;;;2.50;1.00;;;21.20;52.70;;;;;;5041810;28;20017;-81
2022/05/11 07:54:59;;;;;;;0.93;0.70;;;21.40;52.20;;;;;;5044170;28;20252;-79
2022/05/11 08:00:10;;;;;;;2.63;0.70;;;22.00;53.10;;;;;;5050237;28;20094;-81
2022/05/11 08:02:39;;;;;;;1.67;0.70;;;22.50;53.20;;;;;;5058298;28;20036;-80
2022/05/11 08:05:08;;;;;;;2.08;0.90;;;22.90;53.10;;;;;;5033586;28;20740;-81
2022/05/11 08:07:42;;;;;;;0.90;0.70;;;23.30;52.30;;;;;;5038213;28;20476;-80
2022/05/11 08:10:12;;;;;;;3.55;0.90;;;23.60;51.30;;;;;;5058294;28;20223;-80
2022/05/11 08:12:37;;;;;;;1.58;1.00;;;24.00;51.60;;;;;;5044281;28;20036;-82
2022/05/11 08:15:04;;;;;;;2.10;0.80;;;24.40;51.30;;;;;;5033581;28;20072;-80
2022/05/11 08:17:32;;;;;;;1.37;1.00;;;24.80;51.40;;;;;;5064363;28;20262;-81
2022/05/11 08:20:01;;;;;;;1.02;0.80;;;25.20;50.80;;;;;;5035307;28;20040;-80
2022/05/11 08:22:28;;;;;;;2.95;0.90;;;25.60;51.20;;;;;;5040863;28;20036;-81
2022/05/11 08:24:56;;;;;;;2.45;0.90;;;26.10;50.90;;;;;;5029172;28;20025;-84
2022/05/11 08:27:28;;;;;;;1.67;0.95;;;26.50;50.00;;;;;;5022657;28;20400;-81
2022/05/11 08:35:24;;;;;;;1.63;1.00;;;27.60;47.50;;;;;;5047197;28;20045;-81
2022/05/11 08:37:50;;;;;;;2.50;1.10;;;27.90;46.10;;;;;;5059393;28;20212;-82
2022/05/11 08:40:36;;;;;;;1.00;0.90;;;28.00;45.50;;;;;;5057857;28;20387;-80
2022/05/11 08:43:02;;;;;;;1.85;0.90;;;28.10;43.30;;;;;;5037454;28;20468;-81
2022/05/11 08:46:02;;;;;;;1.70;0.90;;;28.20;45.50;;;;;;5025863;28;20162;-80
2022/05/11 08:48:32;;;;;;;1.70;0.90;;;28.40;44.00;;;;;;5065559;28;20028;-81
2022/05/11 08:50:58;;;;;;;1.23;0.90;;;28.60;44.10;;;;;;5056606;28;22413;-81
2022/05/11 08:53:30;;;;;;;2.35;1.00;;;28.80;44.80;;;;;;5047918;28;20025;-81
2022/05/11 08:55:59;;;;;;;1.77;1.15;;;29.00;43.90;;;;;;5056338;28;20037;-82
2022/05/11 08:58:33;;;;;;;1.33;0.90;;;29.20;44.10;;;;;;5048077;28;20235;-81
2022/05/11 09:01:01;;;;;;;2.20;1.08;;;29.40;43.70;;;;;;5021677;28;20505;-81
2022/05/11 09:03:34;;;;;;;2.57;1.07;;;29.70;44.20;;;;;;5060642;28;20032;-81
2022/05/11 09:06:02;;;;;;;2.00;1.10;;;29.90;41.90;;;;;;5035647;28;20076;-83
2022/05/11 09:08:34;;;;;;;1.67;1.00;;;30.10;42.60;;;;;;5045770;28;20031;-80
2022/05/11 09:11:00;;;;;;;1.52;1.20;;;30.30;42.60;;;;;;5043869;28;20036;-81
2022/05/11 09:13:27;;;;;;;2.20;1.30;;;30.40;42.30;;;;;;5055550;28;20063;-80
2022/05/11 09:15:53;;;;;;;2.08;1.13;;;30.60;41.70;;;;;;5021194;28;20733;-81
2022/05/11 09:18:21;;;;;;;1.88;1.05;;;30.70;41.30;;;;;;5049248;28;20036;-81
2022/05/11 09:20:53;;;;;;;1.73;1.10;;;30.80;40.50;;;;;;5027635;28;20122;-81
2022/05/11 09:23:57;;;;;;;2.13;1.13;;;30.80;39.70;;;;;;5033037;28;20025;-80
2022/05/11 09:26:31;;;;;;;3.38;1.30;;;30.90;38.30;;;;;;5050564;28;20028;-80
2022/05/11 09:29:16;;;;;;;2.45;1.20;;;30.90;37.80;;;;;;5049833;28;20037;-81
2022/05/11 09:31:42;;;;;;;2.65;1.30;;;30.80;37.90;;;;;;5017290;28;20048;-80
2022/05/11 09:34:08;;;;;;;1.47;1.30;;;30.80;38.60;;;;;;5021780;28;21012;-81
2022/05/11 09:36:38;;;;;;;2.53;1.30;;;30.70;38.80;;;;;;5040398;28;20313;-81
2022/05/11 09:39:16;;;;;;;1.33;1.02;;;30.60;38.20;;;;;;5030408;28;20102;-81
2022/05/11 09:41:49;;;;;;;2.08;1.00;;;30.60;38.60;;;;;;5045806;28;20029;-81
2022/05/11 09:44:29;;;;;;;3.43;1.40;;;30.70;39.00;;;;;;5046029;28;20237;-83
2022/05/11 09:46:55;;;;;;;1.92;1.00;;;30.90;37.60;;;;;;5026871;28;20119;-82
2022/05/11 09:49:21;;;;;;;1.42;1.00;;;31.00;38.90;;;;;;5043884;28;20383;-81
2022/05/11 09:51:46;;;;;;;2.05;1.17;;;31.20;39.20;;;;;;5054012;28;20442;-81
2022/05/11 09:54:18;;;;;;;1.80;1.20;;;31.40;39.00;;;;;;5046126;28;20244;-82
2022/05/11 09:57:11;;;;;;;4.45;1.17;;;31.50;37.40;;;;;;5035077;28;20044;-80
2022/05/11 09:59:44;;;;;;;2.33;1.25;;;31.70;36.30;;;;;;5058880;28;20226;-81
2022/05/11 10:02:09;;;;;;;2.00;1.20;;;31.70;36.70;;;;;;5023303;28;20393;-82
2022/05/11 10:04:40;;;;;;;2.42;1.20;;;31.70;37.20;;;;;;5049925;28;20036;-80
2022/05/11 10:07:10;;;;;;;3.38;1.30;;;31.70;36.30;;;;;;5036509;28;20089;-81
2022/05/11 10:09:43;;;;;;;1.97;1.03;;;31.70;36.30;;;;;;5040126;28;20033;-81
2022/05/11 10:12:14;;;;;;;2.53;1.15;;;31.70;36.10;;;;;;5030938;28;20064;-82
2022/05/11 10:23:18;;;;;;;6.93;1.40;;;32.00;37.30;;;;;;5049454;28;20033;-81
2022/05/11 10:25:49;;;;;;;1.52;1.10;;;32.30;36.10;;;;;;5032679;28;20079;-81
2022/05/11 10:28:45;;;;;;;2.53;1.40;;;32.40;36.40;;;;;;5047698;28;20567;-81
2022/05/11 10:31:23;;;;;;;2.97;1.48;;;32.60;35.80;;;;;;5063527;28;20075;-81
2022/05/11 10:34:02;;;;;;;1.67;1.13;;;32.80;36.50;;;;;;5022977;28;20702;-81
2022/05/11 10:36:41;;;;;;;4.67;1.63;;;33.00;35.00;;;;;;5048403;28;20016;-81
2022/05/11 10:39:30;;;;;;;2.03;1.30;;;33.20;35.00;;;;;;5037356;28;20249;-81
2022/05/11 10:42:03;;;;;;;2.92;1.80;;;33.30;35.40;;;;;;5015074;28;20301;-81
2022/05/11 10:44:35;;;;;;;2.17;1.33;;;33.50;34.40;;;;;;5007006;28;20517;-83
2022/05/11 10:47:45;;;;;;;3.70;1.48;;;33.50;33.20;;;;;;5027919;28;20170;-81
2022/05/11 10:50:31;;;;;;;2.03;1.20;;;33.30;32.70;;;;;;5018107;28;20401;-81
2022/05/11 10:53:11;;;;;;;2.10;1.33;;;33.10;32.70;;;;;;5039938;28;20128;-81
2022/05/11 10:55:45;;;;;;;2.88;1.50;;;33.00;33.40;;;;;;5036633;28;20493;-81
2022/05/11 10:58:34;;;;;;;3.58;1.20;;;33.00;34.20;;;;;;5035952;28;20159;-82
2022/05/11 11:01:12;;;;;;;1.58;1.45;;;33.10;34.60;;;;;;5023238;28;20028;-81
2022/05/11 11:03:44;;;;;;;3.07;1.40;;;33.40;34.20;;;;;;5028976;28;22513;-81
2022/05/11 11:09:18;;;;;;;2.60;1.50;;;33.70;33.10;;;;;;5050675;28;20052;-82
2022/05/11 11:12:13;;;;;;;3.28;1.65;;;33.70;32.50;;;;;;5053907;28;20024;-83
2022/05/11 11:14:42;;;;;;;2.65;1.40;;;33.60;32.50;;;;;;5043611;28;20037;-82
2022/05/11 11:17:14;;;;;;;2.00;1.40;;;33.70;33.70;;;;;;5022015;28;20737;-80
2022/05/11 11:19:44;;;;;;;2.55;1.50;;;33.80;33.40;;;;;;5029891;28;20473;-81
2022/05/11 11:22:11;;;;;;;2.28;1.40;;;33.90;33.10;;;;;;5058968;28;20398;-82
2022/05/11 11:24:41;;;;;;;2.97;1.27;;;33.90;32.50;;;;;;5045556;28;20377;-81
2022/05/11 11:27:08;;;;;;;1.58;1.23;;;33.80;32.00;;;;;;5016649;28;20037;-82
2022/05/11 11:29:39;;;;;;;2.77;1.40;;;33.70;31.80;;;;;;5009146;28;20041;-80
2022/05/11 11:32:19;;;;;;;2.22;1.30;;;33.60;32.00;;;;;;5011882;28;20079;-81
2022/05/11 11:34:51;;;;;;;2.75;1.48;;;33.60;31.80;;;;;;5007785;28;20315;-81
2022/05/11 11:37:39;;;;;;;2.15;1.20;;;33.60;31.60;;;;;;5049001;28;20382;-81
2022/05/11 11:40:13;;;;;;;2.42;1.20;;;33.60;31.20;;;;;;5021923;28;20029;-81
2022/05/11 11:42:42;;;;;;;2.53;1.20;;;33.60;32.10;;;;;;5047323;28;20070;-81
2022/05/11 11:45:24;;;;;;;2.30;1.40;;;33.70;32.60;;;;;;5017381;28;20051;-83
2022/05/11 11:48:23;;;;;;;1.48;1.33;;;33.80;32.10;;;;;;5040941;28;20131;-81
2022/05/11 11:50:54;;;;;;;3.70;1.40;;;33.80;31.60;;;;;;5027002;28;20158;-80
2022/05/11 11:53:40;;;;;;;2.17;1.33;;;33.80;31.00;;;;;;5048679;28;20040;-82
2022/05/11 11:56:24;;;;;;;2.73;1.20;;;33.70;31.30;;;;;;5032072;28;20037;-82
2022/05/11 11:59:03;;;;;;;2.17;1.10;;;33.70;31.30;;;;;;5039508;28;20147;-81
2022/05/11 12:01:33;;;;;;;3.00;1.30;;;33.70;31.80;;;;;;5039627;28;20037;-81
2022/05/11 12:04:09;;;;;;;2.03;1.40;;;33.70;31.60;;;;;;5055159;28;20517;-82
2022/05/11 12:15:27;;;;;;;1.85;1.40;;;33.60;30.80;;;;;;5052104;28;20032;-82
2022/05/11 12:17:53;;;;;;;2.45;1.40;;;33.50;31.10;;;;;;5044567;28;20033;-80
2022/05/11 12:20:20;;;;;;;2.90;1.40;;;33.50;31.50;;;;;;5056250;28;20041;-80
2022/05/11 12:22:51;;;;;;;2.58;1.20;;;33.50;31.30;;;;;;5012694;28;20051;-82
2022/05/11 12:25:29;;;;;;;2.30;1.30;;;33.40;30.90;;;;;;5045238;28;20048;-81
2022/05/11 12:28:00;;;;;;;2.00;1.17;;;33.40;30.60;;;;;;5037665;28;21229;-80
2022/05/11 12:30:41;;;;;;;2.77;1.40;;;33.40;32.20;;;;;;5027759;28;20041;-81
2022/05/11 12:33:07;;;;;;;2.47;1.42;;;33.40;31.20;;;;;;5020803;28;20471;-82
2022/05/11 12:35:41;;;;;;;2.53;1.30;;;33.40;31.70;;;;;;5026395;28;20092;-82
2022/05/11 12:38:12;;;;;;;1.92;1.40;;;33.40;31.40;;;;;;5020673;28;20071;-81
2022/05/11 12:40:52;;;;;;;2.25;1.30;;;33.50;31.20;;;;;;5030794;28;20028;-81
2022/05/11 12:43:33;;;;;;;2.57;1.17;;;33.50;30.50;;;;;;5052696;28;20045;-81
2022/05/11 12:46:06;;;;;;;3.03;1.25;;;33.40;30.90;;;;;;5052729;28;20230;-81
2022/05/11 12:48:33;;;;;;;3.28;1.30;;;33.40;31.10;;;;;;5041594;28;20127;-80
2022/05/11 12:51:09;;;;;;;3.85;1.50;;;33.50;31.50;;;;;;5049795;28;20562;-80
2022/05/11 12:53:47;;;;;;;1.50;1.20;;;33.50;30.50;;;;;;5021554;28;20076;-81
2022/05/11 12:56:21;;;;;;;2.53;1.40;;;33.50;31.10;;;;;;5031155;28;20167;-81
2022/05/11 12:58:53;;;;;;;1.90;1.33;;;33.60;30.60;;;;;;5032519;28;20038;-80
2022/05/11 13:01:21;;;;;;;4.68;1.70;;;33.60;30.80;;;;;;5032181;28;20056;-81
2022/05/11 13:03:51;;;;;;;2.05;1.50;;;33.60;30.80;;;;;;5032514;28;20177;-82
2022/05/11 13:06:34;;;;;;;2.40;1.33;;;33.70;31.30;;;;;;5055668;28;20044;-81
2022/05/11 13:09:13;;;;;;;1.60;1.20;;;33.80;30.80;;;;;;5010087;28;20591;-81
2022/05/11 13:11:39;;;;;;;2.20;1.20;;;33.80;30.40;;;;;;5046248;28;20744;-82
2022/05/11 13:14:16;;;;;;;4.63;1.80;;;33.80;30.50;;;;;;5055702;28;20150;-81
2022/05/11 13:16:47;;;;;;;2.00;1.30;;;33.70;29.60;;;;;;5041726;28;20570;-83
2022/05/11 13:19:33;;;;;;;3.13;1.20;;;33.50;30.00;;;;;;5043678;28;20580;-81
2022/05/11 13:22:05;;;;;;;2.73;1.33;;;33.30;30.50;;;;;;5054808;28;20265;-81
2022/05/11 13:24:46;;;;;;;2.00;1.30;;;33.20;30.60;;;;;;5027344;28;20137;-80
2022/05/11 13:27:32;;;;;;;2.22;1.30;;;33.20;30.50;;;;;;5051660;28;20575;-80
2022/05/11 13:30:20;;;;;;;2.70;1.27;;;33.30;30.90;;;;;;5037645;28;20059;-81
2022/05/11 13:32:52;;;;;;;2.50;1.40;;;33.40;30.60;;;;;;5059013;28;20098;-80
2022/05/11 13:35:30;;;;;;;5.53;1.20;;;33.30;31.10;;;;;;5057173;28;20025;-80
2022/05/11 13:38:10;;;;;;;2.53;1.20;;;33.40;30.70;;;;;;5049137;28;20593;-82
2022/05/11 13:41:00;;;;;;;2.13;1.20;;;33.40;30.50;;;;;;5032933;28;20029;-81
2022/05/11 13:43:31;;;;;;;2.55;1.20;;;33.40;30.60;;;;;;5024305;28;20536;-81
2022/05/11 13:46:08;;;;;;;1.50;1.10;;;33.40;31.10;;;;;;5046312;28;20290;-81
2022/05/11 13:48:35;;;;;;;1.93;1.10;;;33.40;30.40;;;;;;5063386;28;20476;-82